»·PEaware :: N187DR KCCB-KPSP

N187DR :: KCCB-KPSP

FLIGHT INFORMATION

Flight Status: Arrived
Operator: Privately registered:
United States
More flights under this callsign
Pilot: Nehseem A. (13724)
Aircraft: CESSNA 172 SKYHAWK
(C172)
More flights by this aircraft type
Origin: KCCB Cable
United States
Destination: KPSP Palm Springs Intl
United States
More flights between these airports :: More routes between these airports
Route:
File this flight plan on PilotEdge
Remarks:
Altitude:
(Current/Filed)
5,500ft
Speed:
(Current/Filed)
120kts
Departed: 03-Oct-17 06:53 PM
Arrived: 03-Oct-17 07:35 PM
Distance/Time
Traveled:
62nm/0:42
Distance/Time
To Go:
Arrived

Flight Plot

Page will automatically refresh every two minutes.

Flight plan parsing failed; only flown route is shown


Map Options




Map Legend


Flown Route
Filed Route
Departure Airport
Arrival Airport
Navaid (VOR, NDB)
Fix

Horizontal Profiles

Position Reports

Time Latitude Longitude Heading Altitude Ground
Speed
03-Oct-17 18:42 34.113874 -117.682586 359 1446ft 0kts
03-Oct-17 18:43 34.113874 -117.682586 359 1446ft 0kts
03-Oct-17 18:44 34.113874 -117.682586 359 1446ft 0kts
03-Oct-17 18:45 34.113874 -117.682586 359 1446ft 0kts
03-Oct-17 18:46 34.113874 -117.682586 359 1446ft 0kts
03-Oct-17 18:47 34.113874 -117.682586 359 1446ft 0kts
03-Oct-17 18:48 34.113816 -117.682404 160 1446ft 0kts
03-Oct-17 18:49 34.113816 -117.682404 160 1446ft 0kts
03-Oct-17 18:50 34.113816 -117.682404 160 1446ft 0kts
03-Oct-17 18:51 34.113816 -117.682404 160 1446ft 0kts
03-Oct-17 18:52 34.113640 -117.682322 129 1446ft 0kts
03-Oct-17 18:53 34.113640 -117.682322 129 1446ft 0kts
03-Oct-17 18:54 34.113620 -117.682138 99 1446ft 0kts
03-Oct-17 18:55 34.113536 -117.681984 141 1446ft 0kts
03-Oct-17 18:56 34.113068 -117.682782 245 1446ft 27kts
03-Oct-17 18:57 34.107977 -117.702804 284 2269ft 69kts
03-Oct-17 18:58 34.129121 -117.704447 357 3217ft 84kts
03-Oct-17 18:59 34.145199 -117.689121 93 4085ft 97kts
03-Oct-17 19:00 34.145304 -117.656824 93 4956ft 98kts
03-Oct-17 19:01 34.145138 -117.623590 91 5643ft 104kts
03-Oct-17 19:02 34.144730 -117.582657 93 5610ft 134kts
03-Oct-17 19:03 34.143771 -117.537184 92 5571ft 133kts
03-Oct-17 19:04 34.143733 -117.492814 93 5436ft 132kts
03-Oct-17 19:05 34.143139 -117.448844 91 5452ft 129kts
03-Oct-17 19:06 34.144465 -117.405272 91 5476ft 129kts
03-Oct-17 19:07 34.144828 -117.362314 91 5487ft 130kts
03-Oct-17 19:08 34.146054 -117.319361 90 5497ft 130kts
03-Oct-17 19:09 34.145944 -117.275527 92 5494ft 131kts
03-Oct-17 19:10 34.144831 -117.232226 117 5488ft 126kts
03-Oct-17 19:11 34.122810 -117.203340 143 5491ft 117kts
03-Oct-17 19:12 34.099018 -117.177274 143 5468ft 116kts
03-Oct-17 19:13 34.075642 -117.150641 143 5518ft 115kts
03-Oct-17 19:14 34.051852 -117.122667 145 5605ft 123kts
03-Oct-17 19:15 34.025814 -117.093350 142 5539ft 132kts
03-Oct-17 19:16 33.999151 -117.065215 145 5422ft 119kts
03-Oct-17 19:17 33.974958 -117.037600 141 5546ft 122kts
03-Oct-17 19:18 33.949096 -117.008935 133 5620ft 134kts
03-Oct-17 19:19 33.937531 -116.965960 93 5384ft 134kts
03-Oct-17 19:20 33.935098 -116.921875 90 5515ft 133kts
03-Oct-17 19:21 33.933390 -116.877593 92 5596ft 134kts
03-Oct-17 19:22 33.930794 -116.832799 93 5678ft 134kts
03-Oct-17 19:23 33.928507 -116.786726 91 5507ft 140kts
03-Oct-17 19:24 33.926047 -116.741891 93 5458ft 129kts
03-Oct-17 19:25 33.924385 -116.699650 87 5444ft 125kts
03-Oct-17 19:26 33.921984 -116.658599 92 5592ft 120kts
03-Oct-17 19:27 33.919221 -116.616751 93 5612ft 124kts
03-Oct-17 19:28 33.917605 -116.575256 90 5170ft 116kts
03-Oct-17 19:29 33.928216 -116.539858 65 4001ft 112kts
03-Oct-17 19:30 33.932878 -116.505047 79 3010ft 113kts
03-Oct-17 19:31 33.914711 -116.483776 182 1968ft 97kts
03-Oct-17 19:32 33.889783 -116.486526 198 1504ft 86kts
03-Oct-17 19:33 33.865768 -116.493279 196 1441ft 91kts
03-Oct-17 19:34 33.842688 -116.487901 138 1313ft 91kts
03-Oct-17 19:35 33.829273 -116.464434 116 1342ft 84kts
03-Oct-17 19:36 33.812790 -116.464804 239 1048ft 73kts
03-Oct-17 19:37 33.806735 -116.484402 313 754ft 58kts
03-Oct-17 19:38 33.819925 -116.496143 319 603ft 59kts
03-Oct-17 19:39 33.829010 -116.504197 322 480ft 13kts
03-Oct-17 19:40 33.829809 -116.503902 143 480ft 6kts
03-Oct-17 19:41 33.826942 -116.501394 144 480ft 13kts
03-Oct-17 19:42 33.824130 -116.498638 140 480ft 11kts
03-Oct-17 19:43 33.824098 -116.498208 45 480ft 0kts
03-Oct-17 19:44 33.814452 -116.491196 320 662ft 59kts
03-Oct-17 19:45 33.826695 -116.502146 322 480ft 38kts
03-Oct-17 19:46 33.824098 -116.498208 45 480ft 0kts

Navigation Log

Ident Type
Flight plan parsing failed, navigation log unavailable